Dotti J — WCAE — position and weather

sailwx.info

Track history (hours):
 
Tides and Currents Weather Stations Pressure Air Temp Water Temp Dewpoint Dewpoint Depression Visibility Wind Speed Wind Dir Waves Ship Positions

Dotti J

Owner: PRECON MARINE INC, CHESAPEAKE, VA. More information available from US FCC via Universal Licensing System and Coast Guard Vessel Documentation Center.

Last reported at 2018-Jan-10 11:51 UTC. Time now 2018-Jan-20 15:28 UTC.
Position N 35°04' W 076°34'.
Warning: this ship's position is 10 days out of date.

Length 20 m; draft 2.9 m.

Type: Tug. MMSI: 366880470.

Date/timePositionNaut miles runAvg speedWind from/ knotsBaromVisibWave heightAir tempDewpointWater temp
2018-Jan-10 11:51N 35°04' W 076°34'4 6.7
2018-Jan-10 11:15N 35°02' W 076°38'2 6.6
2018-Jan-10 10:58N 35°01' W 076°40'4 5.6
2018-Jan-10 10:10N 34°56' W 076°39'1 6.7
2018-Jan-10 10:00N 34°55' W 076°40'4 7.1
2018-Jan-10 09:30N 34°52' W 076°41'4 8.0
2018-Jan-10 09:01N 34°48' W 076°41'3 6.9
2018-Jan-10 08:30N 34°45' W 076°41'3 5.5
2018-Jan-10 08:00N 34°43' W 076°43'3 5.3
2018-Jan-10 07:30N 34°43' W 076°46'3 5.1
2018-Jan-10 07:00N 34°43' W 076°50'0 0.2
2018-Jan-10 06:30N 34°43' W 076°50'0 0.0
2018-Jan-10 06:00N 34°43' W 076°50'0 0.1
2018-Jan-10 05:30N 34°43' W 076°50'0 0.0
2018-Jan-10 05:01N 34°43' W 076°50'0 0.0
2018-Jan-10 04:31N 34°43' W 076°50'0 0.0
2018-Jan-10 04:00N 34°43' W 076°50'0 0.0
2018-Jan-10 03:30N 34°43' W 076°50'1 1.6
2018-Jan-10 02:59N 34°43' W 076°51'  
2018-Jan-04 17:21N 32°16' W 080°43'3 7.3
2018-Jan-04 16:55N 32°14' W 080°46'4 5.9
2018-Jan-04 16:19N 32°11' W 080°47'2 6.9
2018-Jan-04 16:00N 32°09' W 080°49'3 6.5
2018-Jan-04 15:30N 32°08' W 080°53'3 6.0
2018-Jan-04 15:00N 32°05' W 080°55'3 6.4
2018-Jan-04 14:31N 32°04' W 080°58'3 5.6
2018-Jan-04 14:01N 32°04' W 081°01'1 2.5
2018-Jan-04 13:30N 32°03' W 081°02'2 4.8
2018-Jan-04 13:00N 32°01' W 081°01'3 5.1
2018-Jan-04 12:30N 31°59' W 081°03'2 4.5
2018-Jan-04 12:00N 31°57' W 081°04'3 5.0
2018-Jan-04 11:30N 31°55' W 081°06'4 6.1
2018-Jan-04 10:55N 31°52' W 081°05'1 3.2
2018-Jan-04 10:30N 31°51' W 081°04'3 5.6
2018-Jan-04 10:00N 31°49' W 081°01'3 3.7
2018-Jan-04 09:04N 31°51' W 081°05'0 6.7
2018-Jan-04 09:00N 31°51' W 081°05'3 3.8
2018-Jan-04 08:18N 31°51' W 081°08'2 6.6
2018-Jan-04 07:57N 31°49' W 081°10'2 4.5
2018-Jan-04 07:30N 31°48' W 081°11'7 4.4
2018-Jan-04 05:59N 31°41' W 081°12'3 6.3
2018-Jan-04 05:26N 31°38' W 081°11'  
Track history (hours):
 
Tides and Currents Weather Stations Pressure Air Temp Water Temp Dewpoint Dewpoint Depression Visibility Wind Speed Wind Dir Waves Ship Positions

Dotti J

Owner: PRECON MARINE INC, CHESAPEAKE, VA. More information available from US FCC via Universal Licensing System and Coast Guard Vessel Documentation Center.

Last reported at 2018-Jan-10 11:51 UTC. Time now 2018-Jan-20 15:28 UTC.
Position N 35°04' W 076°34'.
Warning: this ship's position is 10 days out of date.

Length 20 m; draft 2.9 m.

Type: Tug. MMSI: 366880470.

Date/timePositionNaut miles runAvg speedWind from/ knotsBaromVisibWave heightAir tempDewpointWater temp
2018-Jan-10 11:51N 35°04' W 076°34'4 6.7
2018-Jan-10 11:15N 35°02' W 076°38'2 6.6
2018-Jan-10 10:58N 35°01' W 076°40'4 5.6
2018-Jan-10 10:10N 34°56' W 076°39'1 6.7
2018-Jan-10 10:00N 34°55' W 076°40'4 7.1
2018-Jan-10 09:30N 34°52' W 076°41'4 8.0
2018-Jan-10 09:01N 34°48' W 076°41'3 6.9
2018-Jan-10 08:30N 34°45' W 076°41'3 5.5
2018-Jan-10 08:00N 34°43' W 076°43'3 5.3
2018-Jan-10 07:30N 34°43' W 076°46'3 5.1
2018-Jan-10 07:00N 34°43' W 076°50'0 0.2
2018-Jan-10 06:30N 34°43' W 076°50'0 0.0
2018-Jan-10 06:00N 34°43' W 076°50'0 0.1
2018-Jan-10 05:30N 34°43' W 076°50'0 0.0
2018-Jan-10 05:01N 34°43' W 076°50'0 0.0
2018-Jan-10 04:31N 34°43' W 076°50'0 0.0
2018-Jan-10 04:00N 34°43' W 076°50'0 0.0
2018-Jan-10 03:30N 34°43' W 076°50'1 1.6
2018-Jan-10 02:59N 34°43' W 076°51'  
2018-Jan-04 17:21N 32°16' W 080°43'3 7.3
2018-Jan-04 16:55N 32°14' W 080°46'4 5.9
2018-Jan-04 16:19N 32°11' W 080°47'2 6.9
2018-Jan-04 16:00N 32°09' W 080°49'3 6.5
2018-Jan-04 15:30N 32°08' W 080°53'3 6.0
2018-Jan-04 15:00N 32°05' W 080°55'3 6.4
2018-Jan-04 14:31N 32°04' W 080°58'3 5.6
2018-Jan-04 14:01N 32°04' W 081°01'1 2.5
2018-Jan-04 13:30N 32°03' W 081°02'2 4.8
2018-Jan-04 13:00N 32°01' W 081°01'3 5.1
2018-Jan-04 12:30N 31°59' W 081°03'2 4.5
2018-Jan-04 12:00N 31°57' W 081°04'3 5.0
2018-Jan-04 11:30N 31°55' W 081°06'4 6.1
2018-Jan-04 10:55N 31°52' W 081°05'1 3.2
2018-Jan-04 10:30N 31°51' W 081°04'3 5.6
2018-Jan-04 10:00N 31°49' W 081°01'3 3.7
2018-Jan-04 09:04N 31°51' W 081°05'0 6.7
2018-Jan-04 09:00N 31°51' W 081°05'3 3.8
2018-Jan-04 08:18N 31°51' W 081°08'2 6.6
2018-Jan-04 07:57N 31°49' W 081°10'2 4.5
2018-Jan-04 07:30N 31°48' W 081°11'7 4.4
2018-Jan-04 05:59N 31°41' W 081°12'3 6.3
2018-Jan-04 05:26N 31°38' W 081°11'  

Dump ship's entire track history